createdAt,value
2018-12-18T00:00:42.201Z,12.74
2018-12-18T00:03:13.513Z,12.73
2018-12-18T00:05:44.912Z,12.82
2018-12-18T00:08:15.099Z,12.81
2018-12-18T00:10:49.688Z,12.85
2018-12-18T00:13:29.114Z,12.76
2018-12-18T00:15:58.572Z,12.29
2018-12-18T00:18:27.754Z,12.58
2018-12-18T00:20:57.582Z,12.67
2018-12-18T00:23:26.935Z,12.66
2018-12-18T00:25:56.370Z,12.59
2018-12-18T00:28:25.561Z,12.48
2018-12-18T00:30:56.414Z,12.49
2018-12-18T00:33:26.110Z,12.46
2018-12-18T00:35:55.368Z,12.54
2018-12-18T00:38:24.547Z,12.60
2018-12-18T00:40:54.265Z,12.64
2018-12-18T00:43:23.411Z,12.58
2018-12-18T00:45:53.904Z,12.64
2018-12-18T00:48:23.154Z,12.63
2018-12-18T00:50:52.452Z,12.47
2018-12-18T00:53:22.892Z,12.42
2018-12-18T00:55:52.063Z,12.57
2018-12-18T00:58:21.777Z,12.66
2018-12-18T01:00:51.066Z,12.68
2018-12-18T01:03:20.610Z,12.68
2018-12-18T01:05:50.995Z,12.49
2018-12-18T01:08:20.362Z,12.67
2018-12-18T01:10:50.005Z,12.68
2018-12-18T01:13:19.162Z,12.59
2018-12-18T01:15:49.895Z,12.64
2018-12-18T01:18:19.174Z,12.64
2018-12-18T01:20:48.377Z,12.61
2018-12-18T01:23:18.066Z,12.57
2018-12-18T01:25:47.382Z,12.52
2018-12-18T01:28:16.763Z,12.45
2018-12-18T01:30:46.067Z,12.26
2018-12-18T01:33:16.010Z,12.34
2018-12-18T01:35:46.560Z,12.40
2018-12-18T01:38:15.908Z,12.37
2018-12-18T01:40:45.103Z,12.36
2018-12-18T01:43:15.306Z,12.36
2018-12-18T01:45:44.603Z,12.29
2018-12-18T01:48:14.791Z,12.19
2018-12-18T01:50:44.154Z,12.08
2018-12-18T01:53:13.359Z,12.09
2018-12-18T01:57:11.787Z,11.85
2018-12-18T01:59:42.130Z,11.13
2018-12-18T02:02:11.319Z,11.51
2018-12-18T02:04:40.471Z,11.65
2018-12-18T02:07:09.999Z,11.68
2018-12-18T02:09:40.003Z,11.84
2018-12-18T02:12:10.080Z,11.93
2018-12-18T02:14:39.692Z,11.84
2018-12-18T02:17:10.394Z,11.85
2018-12-18T02:19:39.656Z,11.39
2018-12-18T02:22:09.508Z,11.29
2018-12-18T02:24:39.236Z,11.72
2018-12-18T02:27:08.386Z,11.80
2018-12-18T02:29:37.746Z,11.85
2018-12-18T02:32:07.047Z,11.93
2018-12-18T02:34:37.376Z,11.95
2018-12-18T02:37:07.155Z,11.96
2018-12-18T02:39:37.420Z,11.98
2018-12-18T02:42:06.581Z,11.81
2018-12-18T02:44:35.778Z,11.62
2018-12-18T02:47:04.959Z,11.62
2018-12-18T02:49:34.701Z,11.50
2018-12-18T02:52:03.983Z,11.68
2018-12-18T02:54:33.168Z,11.66
2018-12-18T02:57:02.376Z,11.74
2018-12-18T02:59:32.262Z,11.75
2018-12-18T03:02:01.955Z,11.82
2018-12-18T03:04:32.217Z,11.78
2018-12-18T03:07:01.475Z,11.80
2018-12-18T03:09:31.046Z,11.82
2018-12-18T03:12:00.561Z,11.87
2018-12-18T03:14:30.566Z,11.83
2018-12-18T03:16:59.727Z,11.85
2018-12-18T03:19:30.236Z,11.87
2018-12-18T03:22:00.423Z,11.83
2018-12-18T03:24:29.682Z,11.85
2018-12-18T03:26:59.313Z,11.84
2018-12-18T03:29:28.795Z,11.87
2018-12-18T03:32:01.711Z,11.87
2018-12-18T03:34:30.961Z,11.84
2018-12-18T03:37:00.652Z,11.81
2018-12-18T03:39:29.981Z,11.82
2018-12-18T03:41:59.260Z,11.80
2018-12-18T03:44:29.547Z,11.79
2018-12-18T03:46:58.884Z,11.69
2018-12-18T03:49:28.728Z,11.75
2018-12-18T03:51:58.212Z,11.64
2018-12-18T03:54:27.536Z,11.53
2018-12-18T03:56:58.168Z,11.64
2018-12-18T03:59:27.467Z,11.50
2018-12-18T04:01:57.148Z,11.41
2018-12-18T04:04:26.422Z,11.35
2018-12-18T04:06:56.587Z,11.39
2018-12-18T04:09:25.823Z,11.34
2018-12-18T04:12:01.535Z,10.79
2018-12-18T04:14:31.148Z,10.81
2018-12-18T04:17:00.633Z,11.00
2018-12-18T04:19:31.117Z,10.92
2018-12-18T04:22:00.280Z,11.10
2018-12-18T04:24:29.473Z,11.14
2018-12-18T04:26:59.326Z,10.88
2018-12-18T04:29:28.509Z,10.62
2018-12-18T04:31:57.667Z,10.95
2018-12-18T04:34:27.847Z,10.33
2018-12-18T04:36:57.026Z,10.02
2018-12-18T04:39:26.826Z,10.48
2018-12-18T04:41:56.112Z,10.04
2018-12-18T04:44:25.348Z,10.17
2018-12-18T04:46:55.410Z,9.34
2018-12-18T04:49:24.651Z,9.63
2018-12-18T04:51:54.346Z,9.61
2018-12-18T04:54:23.528Z,9.72
2018-12-18T04:56:52.718Z,9.48
2018-12-18T04:59:21.892Z,9.59
2018-12-18T05:01:51.148Z,9.52
2018-12-18T05:04:20.956Z,8.89
2018-12-18T05:06:50.262Z,9.00
2018-12-18T05:09:19.389Z,9.34
2018-12-18T05:11:49.118Z,9.24
2018-12-18T05:14:18.259Z,9.64
2018-12-18T05:16:48.095Z,9.83
2018-12-18T05:19:17.319Z,9.95
2018-12-18T05:21:47.090Z,9.83
2018-12-18T05:24:16.715Z,9.44
2018-12-18T05:26:46.593Z,9.44
2018-12-18T05:29:16.328Z,9.68
2018-12-18T05:31:45.482Z,9.38
2018-12-18T05:34:16.200Z,9.33
2018-12-18T05:36:45.341Z,8.58
2018-12-18T05:39:14.512Z,9.29
2018-12-18T05:41:44.367Z,9.22
2018-12-18T05:44:15.535Z,8.95
2018-12-18T05:46:44.705Z,9.09
2018-12-18T05:49:13.915Z,8.94
2018-12-18T05:51:43.071Z,8.89
2018-12-18T05:54:12.758Z,9.04
2018-12-18T05:56:41.960Z,9.31
2018-12-18T05:59:11.150Z,9.10
2018-12-18T06:01:40.339Z,9.40
2018-12-18T06:04:09.580Z,9.61
2018-12-18T06:06:39.280Z,9.54
2018-12-18T06:09:08.635Z,9.01
2018-12-18T06:11:37.924Z,9.28
2018-12-18T06:14:07.078Z,9.64
2018-12-18T06:16:36.237Z,9.76
2018-12-18T06:19:05.989Z,9.26
2018-12-18T06:21:35.819Z,9.12
2018-12-18T06:24:06.026Z,9.48
2018-12-18T06:26:35.271Z,9.71
2018-12-18T06:29:04.486Z,9.65
2018-12-18T06:31:34.035Z,9.71
2018-12-18T06:34:03.199Z,9.71
2018-12-18T06:36:32.457Z,9.41
2018-12-18T06:39:01.998Z,9.48
2018-12-18T06:41:33.799Z,9.49
2018-12-18T06:44:03.594Z,9.27
2018-12-18T06:46:33.364Z,9.39
2018-12-18T06:49:02.856Z,8.90
2018-12-18T06:51:32.111Z,8.91
2018-12-18T06:54:01.276Z,9.42
2018-12-18T06:56:31.092Z,9.46
2018-12-18T06:59:00.289Z,9.50
2018-12-18T07:01:29.431Z,9.12
2018-12-18T07:03:58.652Z,9.19
2018-12-18T07:06:27.814Z,8.47
2018-12-18T07:08:57.606Z,8.73
2018-12-18T07:11:26.918Z,8.80
2018-12-18T07:13:56.106Z,9.14
2018-12-18T07:16:25.276Z,9.04
2018-12-18T07:18:55.070Z,9.26
2018-12-18T07:21:24.747Z,9.43
2018-12-18T07:23:53.928Z,9.70
2018-12-18T07:26:25.072Z,9.58
2018-12-18T07:28:54.307Z,9.51
2018-12-18T07:31:23.497Z,9.53
2018-12-18T07:33:53.134Z,9.68
2018-12-18T07:36:22.297Z,9.69
2018-12-18T07:38:51.611Z,8.50
2018-12-18T07:41:20.960Z,8.91
2018-12-18T07:43:50.807Z,8.98
2018-12-18T07:46:20.738Z,8.91
2018-12-18T07:48:50.331Z,9.10
2018-12-18T07:51:19.648Z,8.99
2018-12-18T07:53:48.823Z,8.68
2018-12-18T07:56:19.008Z,8.56
2018-12-18T07:58:48.818Z,8.48
2018-12-18T08:01:18.089Z,8.17
2018-12-18T08:03:47.278Z,8.36
2018-12-18T08:06:16.494Z,9.14
2018-12-18T08:08:45.693Z,8.75
2018-12-18T08:11:15.711Z,9.00
2018-12-18T08:13:45.307Z,8.83
2018-12-18T08:16:14.460Z,9.21
2018-12-18T08:18:46.099Z,9.32
2018-12-18T08:21:15.710Z,9.46
2018-12-18T08:23:45.545Z,9.16
2018-12-18T08:26:14.766Z,9.44
2018-12-18T08:28:45.316Z,9.53
2018-12-18T08:31:14.555Z,9.79
2018-12-18T08:33:43.819Z,9.66
2018-12-18T08:36:13.541Z,9.61
2018-12-18T08:38:42.749Z,9.81
2018-12-18T08:41:11.991Z,9.84
2018-12-18T08:43:41.232Z,9.92
2018-12-18T08:46:10.599Z,9.62
2018-12-18T08:48:41.295Z,10.11
2018-12-18T08:51:10.427Z,10.14
2018-12-18T08:53:39.586Z,10.31
2018-12-18T08:56:09.543Z,10.48
2018-12-18T08:58:38.708Z,10.60
2018-12-18T09:01:08.430Z,10.87
2018-12-18T09:03:37.881Z,11.46
2018-12-18T09:06:07.034Z,12.09
2018-12-18T09:08:36.200Z,12.56
2018-12-18T09:11:07.097Z,13.30
2018-12-18T09:13:36.763Z,13.99
2018-12-18T09:16:10.314Z,13.76
2018-12-18T09:18:40.591Z,13.17
2018-12-18T09:21:09.886Z,13.58
2018-12-18T09:23:39.543Z,13.90
2018-12-18T09:26:09.539Z,13.44
2018-12-18T09:28:39.034Z,13.04
2018-12-18T09:31:11.676Z,13.27
2018-12-18T09:33:44.664Z,12.52
2018-12-18T09:36:13.862Z,12.78
2018-12-18T09:38:48.424Z,12.37
2018-12-18T09:41:23.106Z,12.31
2018-12-18T09:43:56.018Z,12.41
2018-12-18T09:46:25.831Z,11.79
2018-12-18T09:48:56.695Z,10.97
2018-12-18T09:51:26.544Z,11.56
2018-12-18T09:53:56.435Z,11.13
2018-12-18T09:56:26.355Z,11.15
2018-12-18T09:58:55.660Z,11.23
2018-12-18T10:01:24.855Z,10.61
2018-12-18T10:03:55.038Z,10.97
2018-12-18T10:06:25.219Z,11.29
2018-12-18T10:08:55.483Z,10.87
2018-12-18T10:11:28.969Z,11.56
2018-12-18T10:14:07.667Z,12.18
2018-12-18T10:16:51.033Z,12.90
2018-12-18T10:19:21.711Z,13.56
2018-12-18T10:21:52.367Z,12.84
2018-12-18T10:24:22.040Z,12.93
2018-12-18T10:26:51.793Z,12.50
2018-12-18T10:29:31.868Z,12.60
2018-12-18T10:32:14.832Z,12.61
2018-12-18T10:37:28.096Z,13.59
2018-12-18T10:39:57.397Z,13.58
2018-12-18T10:42:26.609Z,14.06
2018-12-18T10:44:55.764Z,14.12
2018-12-18T10:47:25.065Z,14.05
2018-12-18T10:49:54.727Z,14.24
2018-12-18T10:52:23.910Z,13.86
2018-12-18T10:54:53.355Z,13.65
2018-12-18T10:57:22.567Z,13.78
2018-12-18T10:59:51.832Z,13.94
2018-12-18T11:02:22.061Z,14.09
2018-12-18T11:04:51.255Z,14.29
2018-12-18T11:07:20.416Z,13.78
2018-12-18T11:09:50.169Z,13.59
2018-12-18T11:12:24.636Z,13.32
2018-12-18T11:14:54.432Z,13.04
2018-12-18T11:17:23.625Z,12.44
2018-12-18T11:19:52.893Z,11.91
2018-12-18T11:22:22.128Z,11.94
2018-12-18T11:24:51.333Z,12.04
2018-12-18T11:27:21.080Z,11.68
2018-12-18T11:29:50.360Z,11.63
2018-12-18T11:32:20.303Z,11.33
2018-12-18T11:34:49.535Z,11.55
2018-12-18T11:37:18.787Z,11.64
2018-12-18T11:39:48.515Z,11.66
2018-12-18T11:42:17.714Z,11.45
2018-12-18T11:44:48.073Z,10.84
2018-12-18T11:47:17.264Z,11.13
2018-12-18T11:49:48.152Z,10.92
2018-12-18T11:52:17.888Z,10.96
2018-12-18T11:54:47.078Z,10.66
2018-12-18T11:57:16.327Z,10.74
2018-12-18T11:59:45.692Z,10.80
2018-12-18T12:02:14.978Z,11.38
2018-12-18T12:04:44.589Z,11.44
2018-12-18T12:07:15.171Z,11.54
2018-12-18T12:09:44.346Z,11.37
2018-12-18T12:12:13.602Z,11.34
2018-12-18T12:14:43.657Z,10.96
2018-12-18T12:17:14.039Z,11.28
2018-12-18T12:19:43.547Z,11.11
2018-12-18T12:22:13.643Z,10.67
2018-12-18T12:24:42.842Z,11.15
2018-12-18T12:28:20.228Z,11.19
2018-12-18T12:30:49.814Z,11.94
2018-12-18T12:33:19.906Z,12.42
2018-12-18T12:35:49.204Z,12.16
2018-12-18T12:38:18.374Z,11.90
2018-12-18T12:40:47.673Z,11.93
2018-12-18T12:43:17.983Z,11.98
2018-12-18T12:45:47.160Z,11.70
2018-12-18T12:48:18.450Z,10.99
2018-12-18T12:50:47.732Z,10.93
2018-12-18T12:53:17.083Z,11.13
2018-12-18T12:55:46.831Z,10.47
2018-12-18T12:58:16.003Z,10.87
2018-12-18T13:00:46.208Z,11.19
2018-12-18T13:03:15.492Z,11.00
2018-12-18T13:05:45.386Z,10.91
2018-12-18T13:08:15.043Z,10.74
2018-12-18T13:10:44.244Z,10.66
2018-12-18T13:13:13.438Z,10.63
2018-12-18T13:15:42.607Z,10.98
2018-12-18T13:18:11.810Z,10.78
2018-12-18T13:20:41.680Z,11.41
2018-12-18T13:23:11.619Z,10.98
2018-12-18T13:25:41.690Z,10.88
2018-12-18T13:28:11.097Z,10.57
2018-12-18T13:30:43.745Z,10.87
2018-12-18T13:33:13.627Z,11.66
2018-12-18T13:37:13.477Z,11.18
2018-12-18T13:39:46.474Z,10.90
2018-12-18T13:42:15.762Z,11.12
2018-12-18T13:44:45.835Z,10.96
2018-12-18T13:47:15.359Z,11.43
2018-12-18T13:49:44.656Z,10.92
2018-12-18T13:52:15.387Z,10.36
2018-12-18T13:54:45.031Z,10.13
2018-12-18T13:57:14.686Z,10.46
2018-12-18T13:59:43.885Z,10.49
2018-12-18T14:02:14.292Z,10.50
2018-12-18T14:04:43.487Z,10.60
2018-12-18T14:07:12.715Z,10.19
2018-12-18T14:09:42.532Z,10.58
2018-12-18T14:12:11.706Z,11.00
2018-12-18T14:14:40.950Z,10.90
2018-12-18T14:17:10.171Z,10.43
2018-12-18T14:19:39.389Z,10.26
2018-12-18T14:22:09.096Z,10.12
2018-12-18T14:24:38.287Z,10.22
2018-12-18T14:27:07.515Z,10.00
2018-12-18T14:29:36.696Z,10.17
2018-12-18T14:32:05.954Z,9.65
2018-12-18T14:34:35.707Z,9.86
2018-12-18T14:37:06.460Z,9.66
2018-12-18T14:39:35.639Z,9.63
2018-12-18T14:42:04.805Z,9.84
2018-12-18T14:44:33.978Z,10.18
2018-12-18T14:47:03.753Z,10.40
2018-12-18T14:49:33.030Z,10.28
2018-12-18T14:52:02.271Z,10.50
2018-12-18T14:54:32.220Z,10.54
2018-12-18T14:57:01.429Z,10.31
2018-12-18T15:01:00.475Z,9.89
2018-12-18T15:03:29.769Z,9.94
2018-12-18T15:05:59.026Z,9.87
2018-12-18T15:08:28.435Z,10.35
2018-12-18T15:10:57.569Z,10.46
2018-12-18T15:13:31.335Z,10.74
2018-12-18T15:16:00.490Z,10.07
2018-12-18T15:18:29.668Z,10.46
2018-12-18T15:20:58.860Z,10.45
2018-12-18T15:23:28.030Z,10.43
2018-12-18T15:25:57.638Z,10.05
2018-12-18T15:28:27.323Z,9.99
2018-12-18T15:30:56.937Z,9.95
2018-12-18T15:33:26.468Z,10.33
2018-12-18T15:35:56.228Z,10.08
2018-12-18T15:38:27.092Z,10.43
2018-12-18T15:41:03.793Z,10.47
2018-12-18T15:43:34.876Z,10.60
2018-12-18T15:46:08.425Z,10.66
2018-12-18T15:48:39.447Z,10.74
2018-12-18T15:51:10.608Z,10.41
2018-12-18T15:53:41.369Z,10.75
2018-12-18T15:56:10.698Z,10.63
2018-12-18T15:58:39.929Z,10.30
2018-12-18T16:01:10.026Z,10.17
2018-12-18T16:03:39.431Z,10.02
2018-12-18T16:06:09.386Z,9.92
2018-12-18T16:08:39.639Z,10.64
2018-12-18T16:11:09.553Z,10.39
2018-12-18T16:13:41.105Z,10.41
2018-12-18T16:16:12.475Z,9.90
2018-12-18T16:18:42.149Z,9.40
2018-12-18T16:21:15.132Z,9.37
2018-12-18T16:25:15.639Z,9.24
2018-12-18T16:27:44.983Z,9.28
2018-12-18T16:30:14.207Z,9.62
2018-12-18T16:32:43.719Z,9.46
2018-12-18T16:35:15.314Z,9.39
2018-12-18T16:37:45.204Z,8.88
2018-12-18T16:40:16.407Z,9.49
2018-12-18T16:42:45.562Z,9.69
2018-12-18T16:45:14.882Z,9.47
2018-12-18T16:47:44.123Z,9.62
2018-12-18T16:50:13.859Z,9.76
2018-12-18T16:52:43.143Z,10.19
2018-12-18T16:55:12.321Z,10.25
2018-12-18T16:57:41.625Z,10.27
2018-12-18T17:00:11.434Z,9.96
2018-12-18T17:02:41.227Z,9.93
2018-12-18T17:05:13.011Z,9.46
2018-12-18T17:07:43.571Z,9.67
2018-12-18T17:10:13.419Z,10.20
2018-12-18T17:12:48.214Z,10.37
2018-12-18T17:15:18.046Z,10.06
2018-12-18T17:17:47.301Z,9.04
2018-12-18T17:20:16.586Z,9.24
2018-12-18T17:22:46.384Z,9.52
2018-12-18T17:25:16.310Z,9.26
2018-12-18T17:28:48.805Z,9.47
2018-12-18T17:31:17.974Z,9.35
2018-12-18T17:33:47.674Z,9.13
2018-12-18T17:36:16.875Z,9.19
2018-12-18T17:38:46.078Z,9.34
2018-12-18T17:41:16.133Z,9.13
2018-12-18T17:43:45.735Z,9.19
2018-12-18T17:46:15.927Z,8.70
2018-12-18T17:48:45.115Z,8.84
2018-12-18T17:51:16.245Z,9.04
2018-12-18T17:53:46.140Z,8.89
2018-12-18T17:56:15.320Z,9.31
2018-12-18T17:58:45.122Z,9.13
2018-12-18T18:01:14.374Z,9.29
2018-12-18T18:03:43.544Z,8.89
2018-12-18T18:06:12.850Z,9.15
2018-12-18T18:08:43.179Z,8.45
2018-12-18T18:11:12.866Z,8.45
2018-12-18T18:13:42.154Z,8.45
2018-12-18T18:16:11.415Z,8.55
2018-12-18T18:18:40.586Z,8.59
2018-12-18T18:21:09.881Z,8.66
2018-12-18T18:23:39.591Z,8.55
2018-12-18T18:26:09.885Z,8.72
2018-12-18T18:28:39.091Z,8.61
2018-12-18T18:31:08.259Z,8.60
2018-12-18T18:33:37.840Z,8.41
2018-12-18T18:36:07.527Z,8.33
2018-12-18T18:38:37.339Z,8.58
2018-12-18T18:41:06.667Z,8.25
2018-12-18T18:43:36.750Z,8.36
2018-12-18T18:46:05.942Z,8.33
2018-12-18T18:48:35.671Z,8.44
2018-12-18T18:51:04.864Z,8.78
2018-12-18T18:53:34.063Z,8.50
2018-12-18T18:56:03.671Z,8.66
2018-12-18T18:58:33.856Z,8.40
2018-12-18T19:01:03.548Z,8.50
2018-12-18T19:03:32.704Z,7.84
2018-12-18T19:06:01.991Z,8.42
2018-12-18T19:08:31.137Z,8.21
2018-12-18T19:11:00.384Z,8.74
2018-12-18T19:13:30.032Z,8.48
2018-12-18T19:16:00.347Z,8.47
2018-12-18T19:18:29.542Z,8.79
2018-12-18T19:20:58.828Z,8.10
2018-12-18T19:23:28.030Z,8.45
2018-12-18T19:25:57.712Z,8.78
2018-12-18T19:28:27.051Z,9.04
2018-12-18T19:30:57.412Z,8.68
2018-12-18T19:33:26.640Z,8.52
2018-12-18T19:35:58.300Z,8.41
2018-12-18T19:38:28.810Z,8.49
2018-12-18T19:40:58.132Z,9.07
2018-12-18T19:43:27.456Z,9.21
2018-12-18T19:45:57.510Z,8.96
2018-12-18T19:48:27.907Z,8.77
2018-12-18T19:50:57.626Z,8.99
2018-12-18T19:53:26.967Z,8.71
2018-12-18T19:55:56.123Z,8.18
2018-12-18T19:58:25.401Z,8.49
2018-12-18T20:00:54.616Z,8.80
2018-12-18T20:03:24.230Z,9.04
2018-12-18T20:05:53.450Z,9.04
2018-12-18T20:08:23.445Z,9.13
2018-12-18T20:10:52.633Z,8.57
2018-12-18T20:13:21.926Z,8.87
2018-12-18T20:15:51.616Z,8.97
2018-12-18T20:18:20.938Z,8.94
2018-12-18T20:20:50.219Z,8.86
2018-12-18T20:23:19.436Z,9.17
2018-12-18T20:25:48.785Z,9.13
2018-12-18T20:28:19.752Z,9.12
2018-12-18T20:30:49.609Z,9.22
2018-12-18T20:33:18.794Z,9.23
2018-12-18T20:35:49.212Z,8.96
2018-12-18T20:38:18.375Z,9.64
2018-12-18T20:40:48.091Z,9.52
2018-12-18T20:43:18.898Z,9.52
2018-12-18T20:45:48.177Z,8.95
2018-12-18T20:48:17.403Z,8.85
2018-12-18T20:50:46.715Z,8.72
2018-12-18T20:53:16.351Z,8.60
2018-12-18T20:55:45.676Z,8.57
2018-12-18T20:58:15.230Z,8.57
2018-12-18T21:00:45.958Z,8.62
2018-12-18T21:03:15.304Z,8.12
2018-12-18T21:05:44.942Z,8.63
2018-12-18T21:08:14.275Z,8.77
2018-12-18T21:10:43.427Z,8.59
2018-12-18T21:13:17.942Z,8.04
2018-12-18T21:15:47.662Z,8.72
2018-12-18T21:18:16.864Z,8.50
2018-12-18T21:20:46.995Z,8.83
2018-12-18T21:23:16.188Z,8.42
2018-12-18T21:25:45.487Z,8.47
2018-12-18T21:28:16.037Z,8.68
2018-12-18T21:30:45.266Z,8.38
2018-12-18T21:33:14.485Z,8.55
2018-12-18T21:35:43.706Z,8.62
2018-12-18T21:38:12.935Z,8.35
2018-12-18T21:40:42.648Z,8.11
2018-12-18T21:43:11.920Z,8.20
2018-12-18T21:45:41.104Z,8.55
2018-12-18T21:48:10.266Z,8.51
2018-12-18T21:50:40.253Z,8.55
2018-12-18T21:53:09.931Z,8.23
2018-12-18T21:55:39.059Z,8.21
2018-12-18T21:58:08.315Z,8.38
2018-12-18T22:00:37.505Z,8.25
2018-12-18T22:03:06.713Z,8.79
2018-12-18T22:05:36.572Z,8.59
2018-12-18T22:08:07.223Z,8.57
2018-12-18T22:10:36.363Z,8.57
2018-12-18T22:13:06.507Z,8.07
2018-12-18T22:15:35.679Z,8.64
2018-12-18T22:18:05.420Z,8.66
2018-12-18T22:20:34.664Z,8.71
2018-12-18T22:23:03.816Z,8.19
2018-12-18T22:25:33.063Z,8.28
2018-12-18T22:28:02.278Z,8.46
2018-12-18T22:30:32.022Z,8.17
2018-12-18T22:33:01.214Z,8.25
2018-12-18T22:35:30.467Z,8.57
2018-12-18T22:37:59.666Z,8.42
2018-12-18T22:40:28.843Z,8.75
2018-12-18T22:42:58.576Z,8.93
2018-12-18T22:45:27.805Z,8.84
2018-12-18T22:47:57.075Z,8.97
2018-12-18T22:50:26.309Z,9.05
2018-12-18T22:52:56.676Z,8.69
2018-12-18T22:55:26.422Z,8.13
2018-12-18T22:57:55.620Z,8.67
2018-12-18T23:00:30.416Z,8.65
2018-12-18T23:03:01.795Z,8.27
2018-12-18T23:05:31.575Z,8.73
2018-12-18T23:08:01.095Z,8.59
2018-12-18T23:10:30.271Z,8.88
2018-12-18T23:12:59.521Z,9.09
2018-12-18T23:15:28.715Z,9.05
2018-12-18T23:17:59.351Z,9.13
2018-12-18T23:20:28.548Z,9.42
2018-12-18T23:22:57.688Z,9.44
2018-12-18T23:25:26.868Z,9.06
2018-12-18T23:27:56.195Z,9.06
2018-12-18T23:30:25.991Z,9.10
2018-12-18T23:32:55.267Z,8.88
2018-12-18T23:35:24.414Z,9.25
2018-12-18T23:37:53.638Z,8.73
2018-12-18T23:40:23.100Z,9.04
2018-12-18T23:42:53.083Z,9.01
2018-12-18T23:45:22.745Z,8.44
2018-12-18T23:47:52.064Z,8.94
2018-12-18T23:50:21.230Z,9.30
2018-12-18T23:52:50.382Z,8.54
2018-12-18T23:55:21.770Z,8.41
2018-12-18T23:57:50.942Z,8.02
